createdAt,value
2023-03-29T14:01:07.475Z,43.4468
2023-03-29T14:02:08.663Z,45.3640
2023-03-29T14:03:09.833Z,46.0756
2023-03-29T14:04:11.093Z,46.0949
2023-03-29T14:05:12.318Z,45.6191
2023-03-29T14:06:13.546Z,44.9729
2023-03-29T14:07:14.812Z,44.2229
2023-03-29T14:08:19.401Z,43.7630
2023-03-29T14:09:20.931Z,43.4764
2023-03-29T14:10:22.423Z,43.1638
2023-03-29T14:11:24.481Z,42.9025
2023-03-29T14:12:25.653Z,42.6261
2023-03-29T14:13:27.036Z,42.4211
2023-03-29T14:14:28.553Z,42.2731
2023-03-29T14:15:30.049Z,42.0518
2023-03-29T14:16:31.815Z,41.8383
2023-03-29T14:17:33.133Z,41.8111
2023-03-29T14:18:34.802Z,41.6783
2023-03-29T14:19:36.128Z,41.6032
2023-03-29T14:21:58.808Z,37.1776
2023-03-29T14:23:00.047Z,39.6913
2023-03-29T14:24:01.282Z,40.4341
2023-03-29T14:25:02.477Z,40.6238
2023-03-29T14:26:03.972Z,41.1945
2023-03-29T14:27:04.989Z,41.1992
2023-03-29T14:28:06.234Z,40.9519
2023-03-29T14:29:07.445Z,40.8278
2023-03-29T14:30:07.600Z,40.7519
2023-03-29T14:32:04.573Z,36.5396
2023-03-29T14:33:05.787Z,38.9693
2023-03-29T14:34:06.958Z,39.7558
2023-03-29T14:35:10.401Z,40.0404
2023-03-29T14:36:12.064Z,40.1054
2023-03-29T14:37:13.475Z,40.1860
2023-03-29T14:38:14.927Z,40.2301
2023-03-29T14:39:17.847Z,40.2802
2023-03-29T14:40:19.120Z,40.3381
2023-03-29T14:41:21.998Z,40.8911
2023-03-29T14:42:21.575Z,40.9025
2023-03-29T14:43:22.746Z,40.5499
2023-03-29T14:44:24.076Z,40.4250
2023-03-29T14:45:25.566Z,40.2701
2023-03-29T14:46:27.197Z,40.2061
2023-03-29T14:47:28.650Z,40.2141
2023-03-29T14:48:30.137Z,40.2054
2023-03-29T14:49:31.702Z,41.0781
2023-03-29T14:50:33.196Z,41.2985
2023-03-29T14:51:34.694Z,40.2478
2023-03-29T14:52:36.239Z,39.3253
2023-03-29T14:53:37.762Z,39.1449
2023-03-29T14:54:39.242Z,38.9735
2023-03-29T14:55:40.799Z,38.8443
2023-03-29T14:56:42.308Z,38.8509
2023-03-29T14:57:43.852Z,38.5992
2023-03-29T14:58:45.316Z,37.9168
2023-03-29T14:59:46.854Z,37.7046
2023-03-29T15:00:48.399Z,37.8103
2023-03-29T15:01:50.010Z,38.2822
2023-03-29T15:02:51.536Z,38.5073
2023-03-29T15:03:54.712Z,38.3842
2023-03-29T15:04:54.461Z,38.3362
2023-03-29T15:05:56.003Z,38.3575
2023-03-29T15:06:57.510Z,38.4784
2023-03-29T15:07:59.025Z,38.3762
2023-03-29T15:09:06.161Z,38.4928
2023-03-29T15:10:04.418Z,38.4464
2023-03-29T15:11:05.694Z,38.8403
2023-03-29T15:12:06.925Z,38.8995
2023-03-29T15:13:08.181Z,38.8580
2023-03-29T15:14:09.433Z,38.6457
2023-03-29T15:15:10.629Z,39.1003
2023-03-29T15:16:12.075Z,38.8638
2023-03-29T15:17:13.122Z,39.0593
2023-03-29T15:18:14.441Z,39.3458
2023-03-29T15:19:15.725Z,39.4409
2023-03-29T15:20:17.260Z,39.3711
2023-03-29T15:21:18.794Z,40.1088
2023-03-29T15:22:20.275Z,40.4007
2023-03-29T15:23:21.854Z,40.3221
2023-03-29T15:24:23.368Z,39.8820
2023-03-29T15:25:24.877Z,39.8213
2023-03-29T15:26:26.394Z,40.4761
2023-03-29T15:27:27.928Z,40.4113
2023-03-29T15:28:29.487Z,40.7541
2023-03-29T15:29:30.936Z,40.9897
2023-03-29T15:30:33.982Z,40.8698
2023-03-29T15:31:35.245Z,40.3527
2023-03-29T15:32:36.465Z,40.8304
2023-03-29T15:33:37.922Z,40.7086
2023-03-29T15:34:38.930Z,40.4954
2023-03-29T15:35:40.160Z,39.9679
2023-03-29T15:36:41.703Z,40.9161
2023-03-29T15:37:43.136Z,41.3633
2023-03-29T15:38:45.508Z,40.7210
2023-03-29T15:39:46.180Z,41.1458
2023-03-29T15:40:47.763Z,40.6471
2023-03-29T15:41:49.287Z,41.2284
2023-03-29T15:42:50.760Z,41.1738
2023-03-29T15:43:52.268Z,40.8571
2023-03-29T15:44:53.809Z,40.1027
2023-03-29T15:45:55.330Z,39.7187
2023-03-29T15:46:56.875Z,40.2411
2023-03-29T15:47:59.735Z,40.3182
2023-03-29T15:49:01.015Z,39.9149
2023-03-29T15:50:02.198Z,40.5884
2023-03-29T15:51:06.534Z,40.4225
2023-03-29T15:52:04.677Z,39.6826
2023-03-29T15:53:15.149Z,39.8535
2023-03-29T15:54:07.584Z,39.4579
2023-03-29T15:55:08.998Z,39.5101
2023-03-29T15:56:10.562Z,40.2981
2023-03-29T15:57:12.482Z,40.5931
2023-03-29T15:58:13.665Z,40.0278
2023-03-29T15:59:18.129Z,41.0488
2023-03-29T16:00:19.350Z,40.8680
2023-03-29T16:01:20.574Z,39.8534
2023-03-29T16:02:21.854Z,39.5089
2023-03-29T16:03:23.089Z,39.3734
2023-03-29T16:04:24.291Z,39.3717
2023-03-29T16:05:25.546Z,39.4143
2023-03-29T16:06:26.786Z,39.4474
2023-03-29T16:07:27.980Z,39.3403
2023-03-29T16:08:29.232Z,39.6061
2023-03-29T16:09:30.554Z,39.7875
2023-03-29T16:10:31.798Z,39.3965
2023-03-29T16:11:33.332Z,39.7452
2023-03-29T16:12:34.830Z,39.6502
2023-03-29T16:13:36.509Z,39.7745
2023-03-29T16:14:37.928Z,39.6547
2023-03-29T16:15:39.421Z,39.6729
2023-03-29T16:16:40.969Z,40.3294
2023-03-29T16:17:42.511Z,41.1082
2023-03-29T16:18:43.943Z,40.5752
2023-03-29T16:19:45.542Z,40.9359
2023-03-29T16:20:46.991Z,39.9019
2023-03-29T16:21:48.558Z,40.2843
2023-03-29T16:22:50.031Z,40.6268
2023-03-29T16:23:51.580Z,40.2813
2023-03-29T16:24:53.141Z,40.6511
2023-03-29T16:25:54.633Z,40.9981
2023-03-29T16:26:56.486Z,41.0180
2023-03-29T16:27:57.671Z,41.0872
2023-03-29T16:28:59.165Z,41.1500
2023-03-29T16:30:00.736Z,41.3959
2023-03-29T16:31:02.212Z,41.0466
2023-03-29T16:32:06.265Z,41.2562
2023-03-29T17:45:53.497Z,55.1807
2023-03-29T17:46:54.801Z,58.6503
2023-03-29T17:47:56.045Z,59.1649
2023-03-29T17:48:57.204Z,59.1908
2023-03-29T17:52:32.756Z,54.8740
2023-03-29T17:53:34.018Z,57.3144
2023-03-29T17:54:35.231Z,58.2227
2023-03-29T17:55:36.481Z,58.2495
2023-03-29T17:56:37.710Z,58.1944
2023-03-29T17:57:39.424Z,57.8922
2023-03-29T17:58:40.168Z,57.4536
2023-03-29T17:59:41.473Z,57.2391
2023-03-29T18:00:46.195Z,57.0883
2023-03-29T18:01:48.646Z,56.9165
2023-03-29T18:02:44.656Z,56.5166
2023-03-29T18:03:46.132Z,56.3930
2023-03-29T18:04:47.612Z,56.3637
2023-03-29T18:05:49.126Z,56.1599
2023-03-29T18:06:50.654Z,56.0853
2023-03-29T18:07:52.199Z,55.9805
2023-03-29T18:08:53.714Z,55.7954
2023-03-29T18:09:55.236Z,55.8015
2023-03-29T18:10:56.752Z,55.7499
2023-03-29T18:11:58.283Z,55.6206
2023-03-29T18:12:59.953Z,55.6754
2023-03-29T18:14:01.327Z,55.9949
2023-03-29T18:15:02.858Z,56.2313
2023-03-29T18:16:04.560Z,56.2608
2023-03-29T18:17:05.900Z,56.2072
2023-03-29T18:18:08.740Z,57.7192
2023-03-29T18:19:08.917Z,59.0527
2023-03-29T18:20:10.453Z,57.3775
2023-03-29T18:21:11.948Z,56.8598
2023-03-29T18:22:13.463Z,56.3344
2023-03-29T18:23:14.998Z,56.0908
2023-03-29T18:24:16.518Z,55.9865
2023-03-29T18:25:18.033Z,55.9128
2023-03-29T18:26:19.562Z,56.0015
2023-03-29T18:27:21.115Z,55.8548
2023-03-29T18:28:22.653Z,55.7723
2023-03-29T18:29:24.142Z,55.7031
2023-03-29T18:30:25.647Z,55.6786
2023-03-29T18:31:27.278Z,55.6337
2023-03-29T18:32:28.716Z,55.3907
2023-03-29T18:33:30.234Z,55.2322
2023-03-29T18:34:31.733Z,55.1973
2023-03-29T18:35:33.325Z,55.2497
2023-03-29T18:36:34.780Z,55.3447
2023-03-29T18:37:36.328Z,55.4197
2023-03-29T18:38:41.443Z,55.3001
2023-03-29T18:39:48.951Z,55.4650
2023-03-29T18:40:44.203Z,55.4960
2023-03-29T18:43:17.959Z,55.2689
2023-03-29T18:44:18.607Z,55.2788
2023-03-29T18:45:20.171Z,55.1474
2023-03-29T18:46:22.603Z,55.0850
2023-03-29T18:47:23.407Z,55.0152
2023-03-29T18:48:24.686Z,55.0770
2023-03-29T18:49:26.202Z,55.1199
2023-03-29T18:50:29.449Z,55.0734
2023-03-29T18:51:29.222Z,54.7477
2023-03-29T18:52:32.364Z,54.8367
2023-03-29T18:53:37.034Z,54.8810
2023-03-29T18:54:38.549Z,54.8661
2023-03-29T18:55:40.126Z,54.8105
2023-03-29T18:56:42.028Z,54.7636
2023-03-29T18:57:43.099Z,54.6958
2023-03-29T18:58:44.628Z,54.6686
2023-03-29T18:59:46.134Z,54.7599
2023-03-29T19:00:47.632Z,54.8347
2023-03-29T19:01:53.266Z,54.7441
2023-03-29T19:02:53.867Z,54.6410
2023-03-29T19:03:55.774Z,54.6741
2023-03-29T19:04:56.281Z,54.7833
2023-03-29T19:05:57.503Z,54.9728
2023-03-29T19:06:58.741Z,55.3302
2023-03-29T19:07:59.988Z,55.2833
2023-03-29T19:09:01.242Z,55.1866
2023-03-29T19:10:02.486Z,55.1905
2023-03-29T19:11:03.756Z,55.2555
2023-03-29T19:12:04.969Z,55.2442
2023-03-29T19:13:06.241Z,55.1685
2023-03-29T19:14:07.515Z,55.0083
2023-03-29T19:15:08.940Z,54.8360
2023-03-29T19:16:10.536Z,54.8226
2023-03-29T19:17:11.984Z,54.8212
2023-03-29T19:18:13.630Z,55.0462
2023-03-29T19:19:14.999Z,55.0892
2023-03-29T19:20:16.555Z,55.0611
2023-03-29T19:21:18.045Z,55.0403
2023-03-29T19:22:19.590Z,54.9514
2023-03-29T19:23:21.092Z,54.8336
2023-03-29T19:24:22.642Z,54.7465
2023-03-29T19:25:24.130Z,54.6756
2023-03-29T19:26:25.653Z,54.6739
2023-03-29T19:27:27.196Z,54.7097
2023-03-29T19:28:28.716Z,54.9690
2023-03-29T19:29:30.271Z,55.0426
2023-03-29T19:30:31.735Z,55.0139
2023-03-29T19:31:33.324Z,55.0666
2023-03-29T19:32:34.803Z,55.0514
2023-03-29T19:33:36.318Z,54.9539
2023-03-29T19:34:37.828Z,54.8910
2023-03-29T19:35:39.349Z,54.8156
2023-03-29T19:36:40.858Z,54.7774
2023-03-29T19:37:42.376Z,54.7572
2023-03-29T19:38:44.010Z,54.6908
2023-03-29T19:39:45.448Z,54.7251
2023-03-29T19:40:46.958Z,54.6727
2023-03-29T19:41:48.454Z,54.7647
2023-03-29T19:42:50.036Z,54.7180
2023-03-29T19:43:51.563Z,54.6992
2023-03-29T19:44:53.062Z,54.5646
2023-03-29T19:45:54.748Z,54.4631
2023-03-29T19:46:56.150Z,54.5566
2023-03-29T19:47:57.648Z,54.5962
2023-03-29T19:48:59.127Z,54.4830
2023-03-29T19:50:00.664Z,54.4228
2023-03-29T19:51:02.177Z,54.5191
2023-03-29T19:52:03.729Z,54.4485
2023-03-29T19:53:05.218Z,54.4097
2023-03-29T19:54:06.795Z,54.5810
2023-03-29T19:55:08.318Z,54.8050
2023-03-29T19:56:09.809Z,54.8191
2023-03-29T19:57:11.326Z,54.7172
2023-03-29T19:58:12.906Z,54.8012
2023-03-29T19:59:14.360Z,54.8686
2023-03-29T20:00:15.907Z,54.9127
2023-03-29T20:01:17.406Z,54.9848
2023-03-29T20:02:18.937Z,54.9172
2023-03-29T20:03:20.471Z,54.8924
2023-03-29T20:04:22.033Z,54.8423
2023-03-29T20:05:23.509Z,54.7469
2023-03-29T20:06:25.039Z,54.6877
2023-03-29T20:07:26.545Z,54.6174
2023-03-29T20:08:28.075Z,54.6451
2023-03-29T20:09:29.632Z,54.6368
2023-03-29T20:10:31.136Z,54.5623
2023-03-29T20:11:32.637Z,54.4698
2023-03-29T20:12:34.191Z,54.4819
2023-03-29T20:13:38.718Z,54.4470
2023-03-29T20:14:37.217Z,54.5107
2023-03-29T20:15:38.736Z,54.5031
2023-03-29T20:16:40.316Z,54.4535
2023-03-29T20:17:41.801Z,54.6740
2023-03-29T20:18:43.303Z,54.7067
2023-03-29T20:19:44.860Z,54.7494
2023-03-29T20:20:46.362Z,54.6881
2023-03-29T20:21:47.970Z,54.6798
2023-03-29T20:22:53.696Z,54.7388
2023-03-29T20:23:51.104Z,54.8752
2023-03-29T20:24:52.456Z,54.8419
2023-03-29T20:25:54.012Z,54.8179
2023-03-29T20:26:55.495Z,54.7224
2023-03-29T20:27:57.007Z,54.7557
2023-03-29T20:28:58.529Z,54.7144
2023-03-29T20:30:00.061Z,54.6940
2023-03-29T20:31:01.936Z,54.6070
2023-03-29T20:32:03.151Z,54.5432
2023-03-29T20:33:04.712Z,54.6346
2023-03-29T20:34:06.154Z,54.5972
2023-03-29T20:35:07.691Z,54.5862
2023-03-29T20:36:09.349Z,54.6010
2023-03-29T20:37:10.898Z,54.5651
2023-03-29T20:38:12.269Z,54.6679
2023-03-29T20:39:13.908Z,54.7694
2023-03-29T20:40:15.304Z,54.8427
2023-03-29T20:41:16.822Z,54.8126
2023-03-29T20:42:18.804Z,54.8124
2023-03-29T20:43:19.905Z,54.8391
2023-03-29T20:44:21.859Z,54.7388
2023-03-29T20:45:22.917Z,54.6393
2023-03-29T20:46:24.552Z,54.7232
2023-03-29T20:47:25.973Z,54.7758
2023-03-29T20:48:27.491Z,54.8172
2023-03-29T20:49:29.164Z,54.8504
2023-03-29T20:50:30.588Z,54.8383
2023-03-29T20:51:32.185Z,54.9037
2023-03-29T20:52:33.597Z,54.9043
2023-03-29T20:53:35.121Z,54.9167
2023-03-29T20:54:36.715Z,54.8820
2023-03-29T20:55:38.171Z,54.9645
2023-03-29T20:56:40.715Z,54.9329
2023-03-29T20:57:41.203Z,54.8813
2023-03-29T20:58:42.694Z,54.9816
2023-03-29T20:59:44.253Z,55.0808
2023-03-29T21:00:45.761Z,55.0970
2023-03-29T21:01:47.306Z,55.0779
2023-03-29T21:02:48.867Z,54.7616
2023-03-29T21:03:50.387Z,54.6236
2023-03-29T21:04:51.963Z,54.6008
2023-03-29T21:05:53.449Z,54.6273
2023-03-29T21:06:54.914Z,54.7118
2023-03-29T21:07:56.425Z,54.6267
2023-03-29T21:08:57.942Z,54.5977
2023-03-29T21:09:59.465Z,54.6583
2023-03-29T21:11:01.140Z,54.7629
2023-03-29T21:12:02.599Z,54.8873
2023-03-29T21:13:04.041Z,54.9061
2023-03-29T21:14:05.576Z,54.8097
2023-03-29T21:15:07.084Z,54.6839
2023-03-29T21:16:08.662Z,54.5547
2023-03-29T21:17:10.186Z,54.3462
2023-03-29T21:18:11.726Z,54.1799
2023-03-29T21:19:13.169Z,54.0911
2023-03-29T21:20:14.721Z,54.0412
2023-03-29T21:21:16.252Z,54.0266
2023-03-29T21:22:22.608Z,53.9692
2023-03-29T21:23:26.055Z,53.9470
2023-03-29T21:24:29.520Z,53.7613
2023-03-29T21:25:29.615Z,53.8091
2023-03-29T21:26:30.525Z,53.8302
2023-03-29T21:27:31.555Z,53.8498
2023-03-29T21:28:33.153Z,53.8264
2023-03-29T21:29:35.434Z,53.9789
2023-03-29T21:30:36.752Z,54.6904
2023-03-29T21:31:37.276Z,54.6316
2023-03-29T21:32:37.783Z,54.4577
2023-03-29T21:33:40.801Z,54.1276
2023-03-29T21:34:41.452Z,54.0841
2023-03-29T21:35:42.447Z,54.0098
2023-03-29T21:36:43.835Z,53.9118
2023-03-29T21:37:45.334Z,53.8309
2023-03-29T21:38:46.943Z,53.8080
2023-03-29T21:39:49.518Z,54.0046
2023-03-29T21:40:50.022Z,54.5094
2023-03-29T21:41:51.422Z,54.7436
2023-03-29T21:42:52.945Z,54.6846
2023-03-29T21:43:54.475Z,54.5810
2023-03-29T21:44:56.012Z,54.4437
2023-03-29T21:45:57.613Z,54.2854
2023-03-29T21:46:59.133Z,54.2505
2023-03-29T21:48:00.647Z,54.3026
2023-03-29T21:49:02.162Z,54.3793
2023-03-29T21:50:03.652Z,54.3469
2023-03-29T21:51:05.446Z,54.4026
2023-03-29T21:52:06.683Z,54.4749
2023-03-29T21:53:08.693Z,54.5108
2023-03-29T21:54:10.267Z,54.4675
2023-03-29T22:06:32.735Z,54.5298
2023-03-29T22:07:24.827Z,53.7429
2023-03-29T22:08:26.439Z,53.7827
2023-03-29T22:09:27.887Z,53.9447
2023-03-29T22:10:29.432Z,54.0334
2023-03-29T22:11:31.866Z,54.2142
2023-03-29T22:12:32.473Z,54.2425
2023-03-29T22:13:33.981Z,54.0486
2023-03-29T22:14:36.243Z,54.1840
2023-03-29T22:15:37.009Z,54.1848
2023-03-29T22:16:40.956Z,54.2002
2023-03-29T22:17:41.513Z,54.2119
2023-03-29T22:18:42.765Z,54.2385
2023-03-29T22:19:43.946Z,54.3002
2023-03-29T22:20:45.197Z,54.3212
2023-03-29T22:21:46.423Z,54.3032
2023-03-29T22:22:47.808Z,54.2290
2023-03-29T22:23:49.187Z,54.3288
2023-03-29T22:24:51.888Z,54.5116
2023-03-29T22:25:52.237Z,54.5413
2023-03-29T22:26:53.742Z,54.4972
2023-03-29T22:27:55.312Z,54.4350
2023-03-29T22:28:57.378Z,54.5384
2023-03-29T22:29:58.348Z,54.5905
2023-03-29T22:31:00.288Z,54.5439
2023-03-29T22:32:01.474Z,54.5303
2023-03-29T22:33:02.984Z,54.5616
2023-03-29T22:34:04.503Z,54.6281
2023-03-29T22:35:05.942Z,54.5092
2023-03-29T22:36:07.457Z,54.6753
2023-03-29T22:37:08.978Z,54.6100
2023-03-29T22:38:10.503Z,54.5768
2023-03-29T22:39:12.038Z,54.6191
2023-03-29T22:40:13.558Z,54.6441
2023-03-29T22:41:15.071Z,54.6505
2023-03-29T22:42:16.609Z,54.6454
2023-03-29T22:43:18.140Z,54.7051
2023-03-29T22:44:19.640Z,54.7018
2023-03-29T22:45:21.206Z,54.7991
2023-03-29T22:46:22.777Z,54.7693
2023-03-29T22:47:24.240Z,54.6099
2023-03-29T22:48:25.709Z,54.4875
2023-03-29T22:49:27.257Z,54.6740
2023-03-29T22:50:28.769Z,54.8208
2023-03-29T22:51:30.301Z,54.7576
2023-03-29T22:52:31.852Z,54.5965
2023-03-29T22:53:33.376Z,54.4215
2023-03-29T22:54:34.864Z,54.3488
2023-03-29T22:55:36.375Z,54.6118
2023-03-29T22:56:37.997Z,54.7327
2023-03-29T22:57:39.472Z,54.8528
2023-03-29T22:58:40.988Z,54.8564
2023-03-29T22:59:42.493Z,54.5243
2023-03-29T23:00:44.019Z,54.5356
2023-03-29T23:01:45.514Z,54.6083
2023-03-29T23:02:47.031Z,54.7225
2023-03-29T23:03:48.595Z,54.7262
2023-03-29T23:04:50.222Z,54.7048
2023-03-29T23:05:51.587Z,54.7065
2023-03-29T23:06:53.193Z,54.6976
2023-03-29T23:07:54.624Z,54.6728
2023-03-29T23:08:56.170Z,54.6810
2023-03-29T23:09:57.723Z,54.6213
2023-03-29T23:10:59.188Z,54.6542
2023-03-29T23:12:00.854Z,54.6599
2023-03-29T23:13:02.224Z,54.6618
2023-03-29T23:14:03.744Z,54.5943
2023-03-29T23:15:05.304Z,54.6544
2023-03-29T23:16:06.889Z,54.6098
2023-03-29T23:17:08.307Z,54.4376
2023-03-29T23:18:09.852Z,54.3439
2023-03-29T23:19:11.347Z,54.4200
2023-03-29T23:20:12.938Z,54.4557
2023-03-29T23:21:14.397Z,54.4769
2023-03-29T23:22:15.951Z,54.4662
2023-03-29T23:23:17.438Z,54.3800
2023-03-29T23:24:19.323Z,54.3239
2023-03-29T23:25:20.490Z,54.3073
2023-03-29T23:26:22.003Z,54.2740
2023-03-29T23:27:23.576Z,54.2350
2023-03-29T23:28:25.069Z,54.2422
2023-03-29T23:29:26.567Z,54.1514
2023-03-29T23:30:28.108Z,54.1561
2023-03-29T23:31:29.657Z,54.1498
2023-03-29T23:32:31.165Z,54.1460
2023-03-29T23:33:32.689Z,54.1293
2023-03-29T23:34:34.185Z,54.1536
2023-03-29T23:35:35.773Z,54.1014
2023-03-29T23:36:37.233Z,54.1075
2023-03-29T23:37:38.799Z,54.1241
2023-03-29T23:38:40.262Z,54.0061
2023-03-29T23:39:41.826Z,53.9520
2023-03-29T23:40:43.316Z,53.9659
2023-03-29T23:41:44.915Z,54.0135
2023-03-29T23:42:46.384Z,54.0309
2023-03-29T23:43:47.913Z,53.9734
2023-03-29T23:44:49.402Z,53.9463
2023-03-29T23:45:51.083Z,53.9109
2023-03-29T23:46:52.541Z,53.9355
2023-03-29T23:47:54.025Z,53.9778
2023-03-29T23:48:55.554Z,53.9662
2023-03-29T23:49:57.016Z,53.9305
2023-03-29T23:50:59.616Z,53.9824
2023-03-29T23:52:00.077Z,53.9607
2023-03-29T23:53:01.560Z,53.9501
2023-03-29T23:54:03.120Z,53.9648
2023-03-29T23:55:04.595Z,53.9986
2023-03-29T23:56:06.139Z,53.9813
2023-03-29T23:57:07.757Z,53.9382
2023-03-29T23:58:09.156Z,53.9605
2023-03-29T23:59:10.741Z,53.9039
